EDT,Max TemperatureF,Mean TemperatureF,Min TemperatureF,Max Dew PointF,MeanDew PointF,Min DewpointF,Max Humidity, Mean Humidity, Min Humidity, Max Sea Level PressureIn, Mean Sea Level PressureIn, Min Sea Level PressureIn, Max VisibilityMiles, Mean VisibilityMiles, Min VisibilityMiles, Max Wind SpeedMPH, Mean Wind SpeedMPH, Max Gust SpeedMPH,PrecipitationIn, CloudCover, Events, WindDirDegrees
2013-10-1,77,69,61,63,61,59,100,80,60,30.07,30.02,29.98,10,8,3,16,8,20,0.00,5,Fog,202
2013-10-2,77,70,63,66,65,62,100,87,73,30.11,30.06,30.02,10,5,1,12,4,16,0.00,7,,207
2013-10-3,82,74,66,66,65,62,93,74,54,30.05,30.01,29.95,10,9,4,20,10,25,0.03,6,Rain,192
2013-10-4,82,74,66,69,66,64,93,80,67,30.07,30.02,29.99,10,10,6,15,8,20,0.04,6,Rain,185
2013-10-5,73,69,64,70,68,63,97,91,84,30.02,29.97,29.88,10,7,1,21,9,25,1.05,7,Rain-Thunderstorm,180
2013-10-6,65,55,44,64,55,37,100,80,59,29.86,29.80,29.74,10,7,1,25,10,30,1.45,8,Rain-Thunderstorm,235
2013-10-7,62,54,45,46,43,40,83,68,52,30.15,29.96,29.81,10,10,7,22,10,28,T,5,Rain,255
2013-10-8,70,58,46,48,45,43,93,68,42,30.26,30.20,30.16,10,10,10,14,5,16,0.00,0,Fog,132
2013-10-9,72,60,48,49,46,44,89,65,41,30.24,30.18,30.14,10,10,10,10,4,16,0.00,0,,116
2013-10-10,74,62,50,51,48,45,83,64,44,30.19,30.13,30.07,10,10,9,9,1,12,0.00,1,,95
2013-10-11,76,62,48,50,48,46,93,65,36,30.11,30.05,30.01,10,10,9,8,2,10,0.00,1,Fog,152
2013-10-12,77,64,51,59,54,49,96,73,50,30.11,30.06,30.03,10,9,6,13,4,16,0.00,3,Fog,179
2013-10-13,71,61,51,61,45,36,81,56,31,30.35,30.25,30.12,10,10,10,16,10,20,0.00,2,,352
2013-10-14,69,57,44,46,42,39,83,61,39,30.35,30.28,30.17,10,10,10,10,7,13,0.00,2,,50
2013-10-15,66,60,53,62,55,43,93,80,66,30.15,30.00,29.91,10,9,4,18,9,24,0.05,8,Rain,159
2013-10-16,64,54,44,61,48,40,93,72,51,29.98,29.93,29.88,10,10,6,16,9,24,0.01,6,Rain,274
2013-10-17,54,48,41,46,42,39,93,80,66,29.97,29.93,29.89,10,9,4,20,7,25,0.09,5,Rain,236
2013-10-18,65,53,41,46,42,39,96,70,44,30.00,29.96,29.91,10,10,7,23,10,31,0.00,2,Fog,237
2013-10-19,54,47,39,43,38,33,92,69,46,29.97,29.92,29.87,10,9,4,22,8,26,0.30,6,Rain,265
2013-10-20,63,51,38,41,38,34,85,64,43,29.99,29.95,29.92,10,10,10,25,11,32,0.00,2,,201
2013-10-21,62,50,37,46,41,27,89,72,55,30.01,29.95,29.91,10,10,10,21,10,28,0.00,5,,244
2013-10-22,50,40,30,38,30,25,85,62,39,30.06,29.96,29.82,10,10,9,17,6,20,0.02,5,Rain,243
2013-10-23,47,40,33,37,33,25,100,73,45,30.06,29.94,29.77,10,8,2,21,12,25,0.13,7,Rain-Snow,309
2013-10-24,40,36,31,36,31,26,92,81,70,30.31,30.16,30.06,10,10,5,17,9,21,0.02,8,Rain,272
2013-10-25,49,38,26,28,24,21,85,61,36,30.46,30.37,30.26,10,10,10,16,8,20,0.00,1,,249
2013-10-26,56,44,32,38,30,24,76,63,50,30.24,30.06,29.93,10,10,10,24,13,31,0.00,5,,240
2013-10-27,56,43,30,35,30,28,92,64,35,30.12,30.08,30.05,10,10,10,12,3,21,0.00,3,,234
2013-10-28,61,47,32,36,31,29,89,61,32,30.30,30.21,30.09,10,10,8,8,3,10,0.00,2,,37
2013-10-29,54,46,38,47,38,33,86,74,61,30.35,30.28,30.19,10,9,6,9,5,12,0.07,7,Rain,88
2013-10-30,61,55,49,61,54,46,100,100,100,30.17,30.08,29.96,5,1,0,17,7,22,0.19,8,Fog-Rain,127
2013-10-31,65,59,52,63,58,51,100,95,90,29.96,29.59,29.30,10,6,2,44,16,58,2.01,8,Rain,198